Accueil
METAR-TAF:

METAR-TAF

Aéroports :

Aéroport Riviera Airport

Albenga, Italie

latitude: 44-03N, longitude: 008-07E, altitude: 45 m

Observation

Le bulletin a été fait il y a 10 heures et 22 minutes, à 17:50 UTC
Vent 3 kt de direction variable
Température 25°C
Humidité 79%
Pression 1015 hPa
Visibilité 10 km ou plus
Nuages fragmentés à une hauteur de 2500 ft

METAR: LIMG 111750Z VRB03KT 9999 BKN025 25/21 Q1015

Heure: 06:12 (04:12 UTC)


TAF: absent

Observations et prévisions météorologiques de plus de 4000 aéroports (messages METAR et TAF).

Les stations disponibles sont représentées par des disques jaunes et rouges sur la carte.

Passer la souris dessus pour voir le nom de la station.

Cliquer dessus pour voir les observations et prévisions météorologiques.

Pour changer de carte: cliquez sur les boutons verts avec une croix noire pour zoomer, sur le bouton vert avec un tiret pour effectuer un zoom arrière, ou sur les flèches vertes pour les cartes adjacentes.


METAR-TAF: